Aviation Digital Data Service (ADDS)

Output produced by METARs form (1231 UTC 22 March 2019)
found at http://www.aviationweather.gov/metar/data/
 
METAR text: EBFS 221155Z 16007KT 9999 SCT300 15/00 Q1029 BLU BLU
Conditions at: EBFS (FLORENNES (BEL-A, BE) observed 1155 UTC 22 March 2019
Temperature: 15.0°C (59°F)
Dewpoint: 0.0°C (32°F) [RH = 36%]
Pressure (altimeter): 30.38 inches Hg (1029.0 mb)
Winds: from the SSE (160 degrees) at 8 MPH (7 knots; 3.6 m/s)
Visibility: 6 or more miles (10+ km)
Ceiling: at least 12,000 feet AGL
Clouds: scattered clouds at 30000 feet AGL
Weather: no significant weather observed at this time

METAR text: EBFS 221125Z 15005KT 9999 SCT300 15/01 Q1029 BLU BLU
Conditions at: EBFS (FLORENNES (BEL-A, BE) observed 1125 UTC 22 March 2019
Temperature: 15.0°C (59°F)
Dewpoint: 1.0°C (34°F) [RH = 39%]
Pressure (altimeter): 30.38 inches Hg (1029.0 mb)
Winds: from the SSE (150 degrees) at 6 MPH (5 knots; 2.6 m/s)
Visibility: 6 or more miles (10+ km)
Ceiling: at least 12,000 feet AGL
Clouds: scattered clouds at 30000 feet AGL
Weather: no significant weather observed at this time

METAR text: EBFS 221055Z 07005KT 9999 SCT300 14/M01 Q1029 BLU BLU
Conditions at: EBFS (FLORENNES (BEL-A, BE) observed 1055 UTC 22 March 2019
Temperature: 14.0°C (57°F)
Dewpoint: -1.0°C (30°F) [RH = 36%]
Pressure (altimeter): 30.38 inches Hg (1029.0 mb)
Winds: from the ENE (70 degrees) at 6 MPH (5 knots; 2.6 m/s)
Visibility: 6 or more miles (10+ km)
Ceiling: at least 12,000 feet AGL
Clouds: scattered clouds at 30000 feet AGL
Weather: no significant weather observed at this time

METAR text: EBFS 221025Z 08006KT 9999 SCT300 13/02 Q1029 BLU BLU
Conditions at: EBFS (FLORENNES (BEL-A, BE) observed 1025 UTC 22 March 2019
Temperature: 13.0°C (55°F)
Dewpoint: 2.0°C (36°F) [RH = 47%]
Pressure (altimeter): 30.38 inches Hg (1029.0 mb)
Winds: from the E (80 degrees) at 7 MPH (6 knots; 3.1 m/s)
Visibility: 6 or more miles (10+ km)
Ceiling: at least 12,000 feet AGL
Clouds: scattered clouds at 30000 feet AGL
Weather: no significant weather observed at this time

METAR text: EBFS 220955Z 08006KT 9999 SCT300 13/03 Q1030 BLU BLU
Conditions at: EBFS (FLORENNES (BEL-A, BE) observed 0955 UTC 22 March 2019
Temperature: 13.0°C (55°F)
Dewpoint: 3.0°C (37°F) [RH = 51%]
Pressure (altimeter): 30.41 inches Hg (1030.0 mb)
Winds: from the E (80 degrees) at 7 MPH (6 knots; 3.1 m/s)
Visibility: 6 or more miles (10+ km)
Ceiling: at least 12,000 feet AGL
Clouds: scattered clouds at 30000 feet AGL
Weather: no significant weather observed at this time

METAR text: EBFS 220925Z 07004KT 9999 SCT300 12/04 Q1030 BLU BLU
Conditions at: EBFS (FLORENNES (BEL-A, BE) observed 0925 UTC 22 March 2019
Temperature: 12.0°C (54°F)
Dewpoint: 4.0°C (39°F) [RH = 58%]
Pressure (altimeter): 30.41 inches Hg (1030.0 mb)
Winds: from the ENE (70 degrees) at 5 MPH (4 knots; 2.1 m/s)
Visibility: 6 or more miles (10+ km)
Ceiling: at least 12,000 feet AGL
Clouds: scattered clouds at 30000 feet AGL
Weather: no significant weather observed at this time

METAR text: EBFS 220855Z 08003KT 9999 SCT300 11/05 Q1030 BLU BLU
Conditions at: EBFS (FLORENNES (BEL-A, BE) observed 0855 UTC 22 March 2019
Temperature: 11.0°C (52°F)
Dewpoint: 5.0°C (41°F) [RH = 66%]
Pressure (altimeter): 30.41 inches Hg (1030.0 mb)
Winds: from the E (80 degrees) at 3 MPH (3 knots; 1.5 m/s)
Visibility: 6 or more miles (10+ km)
Ceiling: at least 12,000 feet AGL
Clouds: scattered clouds at 30000 feet AGL
Weather: no significant weather observed at this time

METAR text: EBFS 220825Z 08003KT 9999 SCT300 10/05 Q1030 BLU BLU
Conditions at: EBFS (FLORENNES (BEL-A, BE) observed 0825 UTC 22 March 2019
Temperature: 10.0°C (50°F)
Dewpoint: 5.0°C (41°F) [RH = 71%]
Pressure (altimeter): 30.41 inches Hg (1030.0 mb)
Winds: from the E (80 degrees) at 3 MPH (3 knots; 1.5 m/s)
Visibility: 6 or more miles (10+ km)
Ceiling: at least 12,000 feet AGL
Clouds: scattered clouds at 30000 feet AGL
Weather: no significant weather observed at this time

METAR text: EBFS 220755Z 08004KT 9999 SCT300 07/04 Q1030 BLU BLU
Conditions at: EBFS (FLORENNES (BEL-A, BE) observed 0755 UTC 22 March 2019
Temperature: 7.0°C (45°F)
Dewpoint: 4.0°C (39°F) [RH = 81%]
Pressure (altimeter): 30.41 inches Hg (1030.0 mb)
Winds: from the E (80 degrees) at 5 MPH (4 knots; 2.1 m/s)
Visibility: 6 or more miles (10+ km)
Ceiling: at least 12,000 feet AGL
Clouds: scattered clouds at 30000 feet AGL
Weather: no significant weather observed at this time

METAR text: EBFS 220725Z 06004KT 8000 SCT300 06/03 Q1030 BLU BLU
Conditions at: EBFS (FLORENNES (BEL-A, BE) observed 0725 UTC 22 March 2019
Temperature: 6.0°C (43°F)
Dewpoint: 3.0°C (37°F) [RH = 81%]
Pressure (altimeter): 30.41 inches Hg (1030.0 mb)
Winds: from the ENE (60 degrees) at 5 MPH (4 knots; 2.1 m/s)
Visibility: 5 miles ( 8 km)
Ceiling: at least 12,000 feet AGL
Clouds: scattered clouds at 30000 feet AGL
Weather: no significant weather observed at this time

METAR text: EBFS 220722Z 07004KT 8000 SCT300 07/03 Q1030 BLU BLU
Conditions at: EBFS (FLORENNES (BEL-A, BE) observed 0722 UTC 22 March 2019
Temperature: 7.0°C (45°F)
Dewpoint: 3.0°C (37°F) [RH = 76%]
Pressure (altimeter): 30.41 inches Hg (1030.0 mb)
Winds: from the ENE (70 degrees) at 5 MPH (4 knots; 2.1 m/s)
Visibility: 5 miles ( 8 km)
Ceiling: at least 12,000 feet AGL
Clouds: scattered clouds at 30000 feet AGL
Weather: no significant weather observed at this time

METAR text: EBFS 220655Z VRB02KT 7000 MIFG SCT300 05/02 Q1030 WHT WHT BECMG BLU
Conditions at: EBFS (FLORENNES (BEL-A, BE) observed 0655 UTC 22 March 2019
Temperature: 5.0°C (41°F)
Dewpoint: 2.0°C (36°F) [RH = 81%]
Pressure (altimeter): 30.41 inches Hg (1030.0 mb)
Winds: variable direction winds at 2 MPH (2 knots; 1.0 m/s)
Visibility: 4 miles ( 7 km)
Ceiling: at least 12,000 feet AGL
Clouds: scattered clouds at 30000 feet AGL
Weather: MIFG  (shallow fog)

METAR text: EBFS 220625Z 08003KT 6000 MIFG SCT300 04/01 Q1030 WHT WHT BECMG BLU
Conditions at: EBFS (FLORENNES (BEL-A, BE) observed 0625 UTC 22 March 2019
Temperature: 4.0°C (39°F)
Dewpoint: 1.0°C (34°F) [RH = 81%]
Pressure (altimeter): 30.41 inches Hg (1030.0 mb)
Winds: from the E (80 degrees) at 3 MPH (3 knots; 1.5 m/s)
Visibility: 4 miles ( 6 km)
Ceiling: at least 12,000 feet AGL
Clouds: scattered clouds at 30000 feet AGL
Weather: MIFG  (shallow fog)

METAR text: EBFS 220538Z VRB01KT 5000 BR SCT300 05/02 Q1030 WHT WHT BECMG BLU
Conditions at: EBFS (FLORENNES (BEL-A, BE) observed 0538 UTC 22 March 2019
Temperature: 5.0°C (41°F)
Dewpoint: 2.0°C (36°F) [RH = 81%]
Pressure (altimeter): 30.41 inches Hg (1030.0 mb)
Winds: variable direction winds at 1 MPH (1 knots; 0.5 m/s)
Visibility: 3 miles ( 5 km)
Ceiling: at least 12,000 feet AGL
Clouds: scattered clouds at 30000 feet AGL
Weather: BR  (mist)

METAR text: EBFS 220525Z AUTO VRB01KT 9999 BKN100/// BKN120/// 05/02 Q1030 BLU
Conditions at: EBFS (FLORENNES (BEL-A, BE) observed 0525 UTC 22 March 2019
Temperature: 5.0°C (41°F)
Dewpoint: 2.0°C (36°F) [RH = 81%]
Pressure (altimeter): 30.41 inches Hg (1030.0 mb)
Winds: variable direction winds at 1 MPH (1 knots; 0.5 m/s)
Visibility: 6 or more miles (10+ km)
Ceiling: 10000 feet AGL
Clouds: broken clouds at 10000 feet AGL
broken clouds at 12000 feet AGL
Weather: no significant weather observed at this time

METAR text: EBFS 220455Z AUTO VRB01KT 9999 SCT095/// BKN110/// 05/02 Q1030 BLU
Conditions at: EBFS (FLORENNES (BEL-A, BE) observed 0455 UTC 22 March 2019
Temperature: 5.0°C (41°F)
Dewpoint: 2.0°C (36°F) [RH = 81%]
Pressure (altimeter): 30.41 inches Hg (1030.0 mb)
Winds: variable direction winds at 1 MPH (1 knots; 0.5 m/s)
Visibility: 6 or more miles (10+ km)
Ceiling: 11000 feet AGL
Clouds: scattered clouds at 9500 feet AGL
broken clouds at 11000 feet AGL
Weather: no significant weather observed at this time

METAR text: EBFS 220425Z AUTO VRB02KT 9999 BKN095/// BKN110/// 05/03 Q1030 BLU
Conditions at: EBFS (FLORENNES (BEL-A, BE) observed 0425 UTC 22 March 2019
Temperature: 5.0°C (41°F)
Dewpoint: 3.0°C (37°F) [RH = 87%]
Pressure (altimeter): 30.41 inches Hg (1030.0 mb)
Winds: variable direction winds at 2 MPH (2 knots; 1.0 m/s)
Visibility: 6 or more miles (10+ km)
Ceiling: 9500 feet AGL
Clouds: broken clouds at 9500 feet AGL
broken clouds at 11000 feet AGL
Weather: no significant weather observed at this time

METAR text: EBFS 220355Z AUTO VRB02KT 6000 FEW090/// BKN100/// OVC120/// 05/03 Q1030 WHT
Conditions at: EBFS (FLORENNES (BEL-A, BE) observed 0355 UTC 22 March 2019
Temperature: 5.0°C (41°F)
Dewpoint: 3.0°C (37°F) [RH = 87%]
Pressure (altimeter): 30.41 inches Hg (1030.0 mb)
Winds: variable direction winds at 2 MPH (2 knots; 1.0 m/s)
Visibility: 4 miles ( 6 km)
Ceiling: 10000 feet AGL
Clouds: few clouds at 9000 feet AGL
broken clouds at 10000 feet AGL
overcast cloud deck at 12000 feet AGL
Weather: no significant weather observed at this time

METAR text: EBFS 220344Z AUTO VRB02KT 5000 FEW085/// BKN110/// BKN130/// 05/03 Q1030 WHT
Conditions at: EBFS (FLORENNES (BEL-A, BE) observed 0344 UTC 22 March 2019
Temperature: 5.0°C (41°F)
Dewpoint: 3.0°C (37°F) [RH = 87%]
Pressure (altimeter): 30.41 inches Hg (1030.0 mb)
Winds: variable direction winds at 2 MPH (2 knots; 1.0 m/s)
Visibility: 3 miles ( 5 km)
Ceiling: 11000 feet AGL
Clouds: few clouds at 8500 feet AGL
broken clouds at 11000 feet AGL
broken clouds at 13000 feet AGL
Weather: no significant weather observed at this time

METAR text: EBFS 220325Z AUTO 08003KT 2300 BR SCT100/// BKN120/// BKN220/// 04/02 Q1030 YLO
Conditions at: EBFS (FLORENNES (BEL-A, BE) observed 0325 UTC 22 March 2019
Temperature: 4.0°C (39°F)
Dewpoint: 2.0°C (36°F) [RH = 87%]
Pressure (altimeter): 30.41 inches Hg (1030.0 mb)
Winds: from the E (80 degrees) at 3 MPH (3 knots; 1.5 m/s)
Visibility: 1.43 miles (2.30 km)
Ceiling: 12000 feet AGL
Clouds: scattered clouds at 10000 feet AGL
broken clouds at 12000 feet AGL
broken clouds at 22000 feet AGL
Weather: BR  (mist)

METAR text: EBFS 220305Z AUTO VRB02KT 3400 FEW100/// SCT120/// BKN220/// 04/02 Q1030 YLO
Conditions at: EBFS (FLORENNES (BEL-A, BE) observed 0305 UTC 22 March 2019
Temperature: 4.0°C (39°F)
Dewpoint: 2.0°C (36°F) [RH = 87%]
Pressure (altimeter): 30.41 inches Hg (1030.0 mb)
Winds: variable direction winds at 2 MPH (2 knots; 1.0 m/s)
Visibility: 2.11 miles (3.40 km)
Ceiling: 22000 feet AGL
Clouds: few clouds at 10000 feet AGL
scattered clouds at 12000 feet AGL
broken clouds at 22000 feet AGL
Weather: no significant weather observed at this time

METAR text: EBFS 220303Z AUTO VRB02KT 4800 FEW100/// SCT120/// BKN220/// 05/02 Q1030 GRN
Conditions at: EBFS (FLORENNES (BEL-A, BE) observed 0303 UTC 22 March 2019
Temperature: 5.0°C (41°F)
Dewpoint: 2.0°C (36°F) [RH = 81%]
Pressure (altimeter): 30.41 inches Hg (1030.0 mb)
Winds: variable direction winds at 2 MPH (2 knots; 1.0 m/s)
Visibility: 2.98 miles (4.80 km)
Ceiling: 22000 feet AGL
Clouds: few clouds at 10000 feet AGL
scattered clouds at 12000 feet AGL
broken clouds at 22000 feet AGL
Weather: no significant weather observed at this time

METAR text: EBFS 220255Z AUTO VRB02KT 6000 FEW110/// BKN210/// 04/02 Q1030 WHT
Conditions at: EBFS (FLORENNES (BEL-A, BE) observed 0255 UTC 22 March 2019
Temperature: 4.0°C (39°F)
Dewpoint: 2.0°C (36°F) [RH = 87%]
Pressure (altimeter): 30.41 inches Hg (1030.0 mb)
Winds: variable direction winds at 2 MPH (2 knots; 1.0 m/s)
Visibility: 4 miles ( 6 km)
Ceiling: 21000 feet AGL
Clouds: few clouds at 11000 feet AGL
broken clouds at 21000 feet AGL
Weather: no significant weather observed at this time

METAR text: EBFS 220225Z AUTO VRB02KT 6000 OVC210/// 06/04 Q1030 WHT
Conditions at: EBFS (FLORENNES (BEL-A, BE) observed 0225 UTC 22 March 2019
Temperature: 6.0°C (43°F)
Dewpoint: 4.0°C (39°F) [RH = 87%]
Pressure (altimeter): 30.41 inches Hg (1030.0 mb)
Winds: variable direction winds at 2 MPH (2 knots; 1.0 m/s)
Visibility: 4 miles ( 6 km)
Ceiling: 21000 feet AGL
Clouds: overcast cloud deck at 21000 feet AGL
Weather: no significant weather observed at this time

METAR text: EBFS 220223Z AUTO VRB02KT 5000 BKN210/// 07/04 Q1030 WHT
Conditions at: EBFS (FLORENNES (BEL-A, BE) observed 0223 UTC 22 March 2019
Temperature: 7.0°C (45°F)
Dewpoint: 4.0°C (39°F) [RH = 81%]
Pressure (altimeter): 30.41 inches Hg (1030.0 mb)
Winds: variable direction winds at 2 MPH (2 knots; 1.0 m/s)
Visibility: 3 miles ( 5 km)
Ceiling: 21000 feet AGL
Clouds: broken clouds at 21000 feet AGL
Weather: no significant weather observed at this time

METAR text: EBFS 220204Z AUTO VRB01KT 4900 FEW110/// BKN220/// 06/04 Q1031 GRN
Conditions at: EBFS (FLORENNES (BEL-A, BE) observed 0204 UTC 22 March 2019
Temperature: 6.0°C (43°F)
Dewpoint: 4.0°C (39°F) [RH = 87%]
Pressure (altimeter): 30.44 inches Hg (1031.0 mb)
Winds: variable direction winds at 1 MPH (1 knots; 0.5 m/s)
Visibility: 3 miles ( 5 km)
Ceiling: 22000 feet AGL
Clouds: few clouds at 11000 feet AGL
broken clouds at 22000 feet AGL
Weather: no significant weather observed at this time

METAR text: EBFS 220155Z AUTO VRB02KT 5000 FEW110/// BKN220/// 06/04 Q1031 WHT
Conditions at: EBFS (FLORENNES (BEL-A, BE) observed 0155 UTC 22 March 2019
Temperature: 6.0°C (43°F)
Dewpoint: 4.0°C (39°F) [RH = 87%]
Pressure (altimeter): 30.44 inches Hg (1031.0 mb)
Winds: variable direction winds at 2 MPH (2 knots; 1.0 m/s)
Visibility: 3 miles ( 5 km)
Ceiling: 22000 feet AGL
Clouds: few clouds at 11000 feet AGL
broken clouds at 22000 feet AGL
Weather: no significant weather observed at this time

METAR text: EBFS 220125Z AUTO VRB02KT 6000 FEW110/// BKN220/// 06/04 Q1031 WHT
Conditions at: EBFS (FLORENNES (BEL-A, BE) observed 0125 UTC 22 March 2019
Temperature: 6.0°C (43°F)
Dewpoint: 4.0°C (39°F) [RH = 87%]
Pressure (altimeter): 30.44 inches Hg (1031.0 mb)
Winds: variable direction winds at 2 MPH (2 knots; 1.0 m/s)
Visibility: 4 miles ( 6 km)
Ceiling: 22000 feet AGL
Clouds: few clouds at 11000 feet AGL
broken clouds at 22000 feet AGL
Weather: no significant weather observed at this time

METAR text: EBFS 220055Z AUTO VRB02KT 7000 FEW095/// BKN210/// 07/04 Q1031 WHT
Conditions at: EBFS (FLORENNES (BEL-A, BE) observed 0055 UTC 22 March 2019
Temperature: 7.0°C (45°F)
Dewpoint: 4.0°C (39°F) [RH = 81%]
Pressure (altimeter): 30.44 inches Hg (1031.0 mb)
Winds: variable direction winds at 2 MPH (2 knots; 1.0 m/s)
Visibility: 4 miles ( 7 km)
Ceiling: 21000 feet AGL
Clouds: few clouds at 9500 feet AGL
broken clouds at 21000 feet AGL
Weather: no significant weather observed at this time

METAR text: EBFS 220043Z AUTO VRB02KT 8000 SCT095/// BKN110/// BKN220/// 07/05 Q1031 BLU
Conditions at: EBFS (FLORENNES (BEL-A, BE) observed 0043 UTC 22 March 2019
Temperature: 7.0°C (45°F)
Dewpoint: 5.0°C (41°F) [RH = 87%]
Pressure (altimeter): 30.44 inches Hg (1031.0 mb)
Winds: variable direction winds at 2 MPH (2 knots; 1.0 m/s)
Visibility: 5 miles ( 8 km)
Ceiling: 11000 feet AGL
Clouds: scattered clouds at 9500 feet AGL
broken clouds at 11000 feet AGL
broken clouds at 22000 feet AGL
Weather: no significant weather observed at this time

METAR text: EBFS 220025Z AUTO VRB01KT 7000 BKN095/// BKN110/// 07/05 Q1031 WHT
Conditions at: EBFS (FLORENNES (BEL-A, BE) observed 0025 UTC 22 March 2019
Temperature: 7.0°C (45°F)
Dewpoint: 5.0°C (41°F) [RH = 87%]
Pressure (altimeter): 30.44 inches Hg (1031.0 mb)
Winds: variable direction winds at 1 MPH (1 knots; 0.5 m/s)
Visibility: 4 miles ( 7 km)
Ceiling: 9500 feet AGL
Clouds: broken clouds at 9500 feet AGL
broken clouds at 11000 feet AGL
Weather: no significant weather observed at this time

METAR text: EBFS 212355Z AUTO VRB01KT 6000 BKN095/// BKN110/// 07/05 Q1031 WHT
Conditions at: EBFS (FLORENNES (BEL-A, BE) observed 2355 UTC 21 March 2019
Temperature: 7.0°C (45°F)
Dewpoint: 5.0°C (41°F) [RH = 87%]
Pressure (altimeter): 30.44 inches Hg (1031.0 mb)
Winds: variable direction winds at 1 MPH (1 knots; 0.5 m/s)
Visibility: 4 miles ( 6 km)
Ceiling: 9500 feet AGL
Clouds: broken clouds at 9500 feet AGL
broken clouds at 11000 feet AGL
Weather: no significant weather observed at this time

METAR text: EBFS 212325Z AUTO VRB01KT 7000 FEW100/// BKN220/// 07/05 Q1031 WHT
Conditions at: EBFS (FLORENNES (BEL-A, BE) observed 2325 UTC 21 March 2019
Temperature: 7.0°C (45°F)
Dewpoint: 5.0°C (41°F) [RH = 87%]
Pressure (altimeter): 30.44 inches Hg (1031.0 mb)
Winds: variable direction winds at 1 MPH (1 knots; 0.5 m/s)
Visibility: 4 miles ( 7 km)
Ceiling: 22000 feet AGL
Clouds: few clouds at 10000 feet AGL
broken clouds at 22000 feet AGL
Weather: no significant weather observed at this time

METAR text: EBFS 212306Z AUTO 05003KT 7000 FEW100/// BKN220/// 08/05 Q1031 WHT
Conditions at: EBFS (FLORENNES (BEL-A, BE) observed 2306 UTC 21 March 2019
Temperature: 8.0°C (46°F)
Dewpoint: 5.0°C (41°F) [RH = 81%]
Pressure (altimeter): 30.44 inches Hg (1031.0 mb)
Winds: from the NE (50 degrees) at 3 MPH (3 knots; 1.5 m/s)
Visibility: 4 miles ( 7 km)
Ceiling: 22000 feet AGL
Clouds: few clouds at 10000 feet AGL
broken clouds at 22000 feet AGL
Weather: no significant weather observed at this time

METAR text: EBFS 212255Z AUTO 05004KT 8000 FEW095/// SCT120/// BKN220/// 08/05 Q1032 BLU
Conditions at: EBFS (FLORENNES (BEL-A, BE) observed 2255 UTC 21 March 2019
Temperature: 8.0°C (46°F)
Dewpoint: 5.0°C (41°F) [RH = 81%]
Pressure (altimeter): 30.47 inches Hg (1032.0 mb)
Winds: from the NE (50 degrees) at 5 MPH (4 knots; 2.1 m/s)
Visibility: 5 miles ( 8 km)
Ceiling: 22000 feet AGL
Clouds: few clouds at 9500 feet AGL
scattered clouds at 12000 feet AGL
broken clouds at 22000 feet AGL
Weather: no significant weather observed at this time

METAR text: EBFS 212225Z AUTO 04003KT 9000 FEW085/// BKN100/// OVC110/// 08/05 Q1032 BLU
Conditions at: EBFS (FLORENNES (BEL-A, BE) observed 2225 UTC 21 March 2019
Temperature: 8.0°C (46°F)
Dewpoint: 5.0°C (41°F) [RH = 81%]
Pressure (altimeter): 30.47 inches Hg (1032.0 mb)
Winds: from the NE (40 degrees) at 3 MPH (3 knots; 1.5 m/s)
Visibility: 6 miles ( 9 km)
Ceiling: 10000 feet AGL
Clouds: few clouds at 8500 feet AGL
broken clouds at 10000 feet AGL
overcast cloud deck at 11000 feet AGL
Weather: no significant weather observed at this time

METAR text: EBFS 212155Z AUTO VRB02KT 9999 SCT090/// BKN110/// OVC120/// 09/05 Q1032 BLU
Conditions at: EBFS (FLORENNES (BEL-A, BE) observed 2155 UTC 21 March 2019
Temperature: 9.0°C (48°F)
Dewpoint: 5.0°C (41°F) [RH = 76%]
Pressure (altimeter): 30.47 inches Hg (1032.0 mb)
Winds: variable direction winds at 2 MPH (2 knots; 1.0 m/s)
Visibility: 6 or more miles (10+ km)
Ceiling: 11000 feet AGL
Clouds: scattered clouds at 9000 feet AGL
broken clouds at 11000 feet AGL
overcast cloud deck at 12000 feet AGL
Weather: no significant weather observed at this time

METAR text: EBFS 212125Z AUTO 03004KT 9999 SCT100/// BKN120/// 09/05 Q1032 BLU
Conditions at: EBFS (FLORENNES (BEL-A, BE) observed 2125 UTC 21 March 2019
Temperature: 9.0°C (48°F)
Dewpoint: 5.0°C (41°F) [RH = 76%]
Pressure (altimeter): 30.47 inches Hg (1032.0 mb)
Winds: from the NNE (30 degrees) at 5 MPH (4 knots; 2.1 m/s)
Visibility: 6 or more miles (10+ km)
Ceiling: 12000 feet AGL
Clouds: scattered clouds at 10000 feet AGL
broken clouds at 12000 feet AGL
Weather: no significant weather observed at this time

METAR text: EBFS 212055Z AUTO 04003KT 9999 SCT100/// BKN120/// BKN140/// 09/05 Q1032 BLU
Conditions at: EBFS (FLORENNES (BEL-A, BE) observed 2055 UTC 21 March 2019
Temperature: 9.0°C (48°F)
Dewpoint: 5.0°C (41°F) [RH = 76%]
Pressure (altimeter): 30.47 inches Hg (1032.0 mb)
Winds: from the NE (40 degrees) at 3 MPH (3 knots; 1.5 m/s)
Visibility: 6 or more miles (10+ km)
Ceiling: 12000 feet AGL
Clouds: scattered clouds at 10000 feet AGL
broken clouds at 12000 feet AGL
broken clouds at 14000 feet AGL
Weather: no significant weather observed at this time

METAR text: EBFS 212025Z AUTO 05003KT 9999 SCT100/// BKN110/// OVC130/// 09/05 Q1032 BLU
Conditions at: EBFS (FLORENNES (BEL-A, BE) observed 2025 UTC 21 March 2019
Temperature: 9.0°C (48°F)
Dewpoint: 5.0°C (41°F) [RH = 76%]
Pressure (altimeter): 30.47 inches Hg (1032.0 mb)
Winds: from the NE (50 degrees) at 3 MPH (3 knots; 1.5 m/s)
Visibility: 6 or more miles (10+ km)
Ceiling: 11000 feet AGL
Clouds: scattered clouds at 10000 feet AGL
broken clouds at 11000 feet AGL
overcast cloud deck at 13000 feet AGL
Weather: no significant weather observed at this time

METAR text: EBFS 211955Z AUTO 03003KT 9999 SCT100/// BKN120/// 09/05 Q1032 BLU
Conditions at: EBFS (FLORENNES (BEL-A, BE) observed 1955 UTC 21 March 2019
Temperature: 9.0°C (48°F)
Dewpoint: 5.0°C (41°F) [RH = 76%]
Pressure (altimeter): 30.47 inches Hg (1032.0 mb)
Winds: from the NNE (30 degrees) at 3 MPH (3 knots; 1.5 m/s)
Visibility: 6 or more miles (10+ km)
Ceiling: 12000 feet AGL
Clouds: scattered clouds at 10000 feet AGL
broken clouds at 12000 feet AGL
Weather: no significant weather observed at this time

METAR text: EBFS 211925Z AUTO 02004KT 9999 FEW110/// BKN220/// 10/05 Q1032 BLU
Conditions at: EBFS (FLORENNES (BEL-A, BE) observed 1925 UTC 21 March 2019
Temperature: 10.0°C (50°F)
Dewpoint: 5.0°C (41°F) [RH = 71%]
Pressure (altimeter): 30.47 inches Hg (1032.0 mb)
Winds: from the NNE (20 degrees) at 5 MPH (4 knots; 2.1 m/s)
Visibility: 6 or more miles (10+ km)
Ceiling: 22000 feet AGL
Clouds: few clouds at 11000 feet AGL
broken clouds at 22000 feet AGL
Weather: no significant weather observed at this time

METAR text: EBFS 211855Z AUTO 02005KT 9999 FEW130/// BKN220/// 10/05 Q1032 BLU
Conditions at: EBFS (FLORENNES (BEL-A, BE) observed 1855 UTC 21 March 2019
Temperature: 10.0°C (50°F)
Dewpoint: 5.0°C (41°F) [RH = 71%]
Pressure (altimeter): 30.47 inches Hg (1032.0 mb)
Winds: from the NNE (20 degrees) at 6 MPH (5 knots; 2.6 m/s)
Visibility: 6 or more miles (10+ km)
Ceiling: 22000 feet AGL
Clouds: few clouds at 13000 feet AGL
broken clouds at 22000 feet AGL
Weather: no significant weather observed at this time

METAR text: EBFS 211825Z AUTO 02005KT 9999 FEW120/// BKN220/// 10/05 Q1032 BLU
Conditions at: EBFS (FLORENNES (BEL-A, BE) observed 1825 UTC 21 March 2019
Temperature: 10.0°C (50°F)
Dewpoint: 5.0°C (41°F) [RH = 71%]
Pressure (altimeter): 30.47 inches Hg (1032.0 mb)
Winds: from the NNE (20 degrees) at 6 MPH (5 knots; 2.6 m/s)
Visibility: 6 or more miles (10+ km)
Ceiling: 22000 feet AGL
Clouds: few clouds at 12000 feet AGL
broken clouds at 22000 feet AGL
Weather: no significant weather observed at this time

METAR text: EBFS 211755Z AUTO 01005KT 9999 FEW120/// BKN220/// 11/05 Q1032 BLU
Conditions at: EBFS (FLORENNES (BEL-A, BE) observed 1755 UTC 21 March 2019
Temperature: 11.0°C (52°F)
Dewpoint: 5.0°C (41°F) [RH = 66%]
Pressure (altimeter): 30.47 inches Hg (1032.0 mb)
Winds: from the N (10 degrees) at 6 MPH (5 knots; 2.6 m/s)
Visibility: 6 or more miles (10+ km)
Ceiling: 22000 feet AGL
Clouds: few clouds at 12000 feet AGL
broken clouds at 22000 feet AGL
Weather: no significant weather observed at this time

METAR text: EBFS 211725Z AUTO 36007KT 9999 FEW150/// 12/05 Q1032 BLU
Conditions at: EBFS (FLORENNES (BEL-A, BE) observed 1725 UTC 21 March 2019
Temperature: 12.0°C (54°F)
Dewpoint: 5.0°C (41°F) [RH = 62%]
Pressure (altimeter): 30.47 inches Hg (1032.0 mb)
Winds: from the N (360 degrees) at 8 MPH (7 knots; 3.6 m/s)
Visibility: 6 or more miles (10+ km)
Ceiling: at least 12,000 feet AGL
Clouds: few clouds at 15000 feet AGL
Weather: no significant weather observed at this time

METAR text: EBFS 211655Z AUTO 36007KT 9999 FEW220/// 13/06 Q1032 BLU
Conditions at: EBFS (FLORENNES (BEL-A, BE) observed 1655 UTC 21 March 2019
Temperature: 13.0°C (55°F)
Dewpoint: 6.0°C (43°F) [RH = 62%]
Pressure (altimeter): 30.47 inches Hg (1032.0 mb)
Winds: from the N (360 degrees) at 8 MPH (7 knots; 3.6 m/s)
Visibility: 6 or more miles (10+ km)
Ceiling: at least 12,000 feet AGL
Clouds: few clouds at 22000 feet AGL
Weather: no significant weather observed at this time

METAR text: EBFS 211625Z 35007KT 9999 FEW220 13/06 Q1032 BLU BLU
Conditions at: EBFS (FLORENNES (BEL-A, BE) observed 1625 UTC 21 March 2019
Temperature: 13.0°C (55°F)
Dewpoint: 6.0°C (43°F) [RH = 62%]
Pressure (altimeter): 30.47 inches Hg (1032.0 mb)
Winds: from the N (350 degrees) at 8 MPH (7 knots; 3.6 m/s)
Visibility: 6 or more miles (10+ km)
Ceiling: at least 12,000 feet AGL
Clouds: few clouds at 22000 feet AGL
Weather: no significant weather observed at this time

METAR text: EBFS 211555Z 36007KT 9999 FEW220 14/06 Q1032 BLU BLU
Conditions at: EBFS (FLORENNES (BEL-A, BE) observed 1555 UTC 21 March 2019
Temperature: 14.0°C (57°F)
Dewpoint: 6.0°C (43°F) [RH = 58%]
Pressure (altimeter): 30.47 inches Hg (1032.0 mb)
Winds: from the N (360 degrees) at 8 MPH (7 knots; 3.6 m/s)
Visibility: 6 or more miles (10+ km)
Ceiling: at least 12,000 feet AGL
Clouds: few clouds at 22000 feet AGL
Weather: no significant weather observed at this time

METAR text: EBFS 211525Z 36007KT 9999 FEW220 14/06 Q1032 BLU BLU
Conditions at: EBFS (FLORENNES (BEL-A, BE) observed 1525 UTC 21 March 2019
Temperature: 14.0°C (57°F)
Dewpoint: 6.0°C (43°F) [RH = 58%]
Pressure (altimeter): 30.47 inches Hg (1032.0 mb)
Winds: from the N (360 degrees) at 8 MPH (7 knots; 3.6 m/s)
Visibility: 6 or more miles (10+ km)
Ceiling: at least 12,000 feet AGL
Clouds: few clouds at 22000 feet AGL
Weather: no significant weather observed at this time

METAR text: EBFS 211455Z 36005KT 9999 FEW220 14/05 Q1032 BLU BLU
Conditions at: EBFS (FLORENNES (BEL-A, BE) observed 1455 UTC 21 March 2019
Temperature: 14.0°C (57°F)
Dewpoint: 5.0°C (41°F) [RH = 55%]
Pressure (altimeter): 30.47 inches Hg (1032.0 mb)
Winds: from the N (360 degrees) at 6 MPH (5 knots; 2.6 m/s)
Visibility: 6 or more miles (10+ km)
Ceiling: at least 12,000 feet AGL
Clouds: few clouds at 22000 feet AGL
Weather: no significant weather observed at this time

METAR text: EBFS 211425Z VRB02KT 9999 FEW220 14/04 Q1032 BLU BLU
Conditions at: EBFS (FLORENNES (BEL-A, BE) observed 1425 UTC 21 March 2019
Temperature: 14.0°C (57°F)
Dewpoint: 4.0°C (39°F) [RH = 51%]
Pressure (altimeter): 30.47 inches Hg (1032.0 mb)
Winds: variable direction winds at 2 MPH (2 knots; 1.0 m/s)
Visibility: 6 or more miles (10+ km)
Ceiling: at least 12,000 feet AGL
Clouds: few clouds at 22000 feet AGL
Weather: no significant weather observed at this time

METAR text: EBFS 211355Z VRB02KT 9999 FEW220 15/03 Q1033 BLU BLU
Conditions at: EBFS (FLORENNES (BEL-A, BE) observed 1355 UTC 21 March 2019
Temperature: 15.0°C (59°F)
Dewpoint: 3.0°C (37°F) [RH = 44%]
Pressure (altimeter): 30.50 inches Hg (1033.0 mb)
Winds: variable direction winds at 2 MPH (2 knots; 1.0 m/s)
Visibility: 6 or more miles (10+ km)
Ceiling: at least 12,000 feet AGL
Clouds: few clouds at 22000 feet AGL
Weather: no significant weather observed at this time

METAR text: EBFS 211325Z 02004KT 9999 FEW032 14/04 Q1033 BLU BLU
Conditions at: EBFS (FLORENNES (BEL-A, BE) observed 1325 UTC 21 March 2019
Temperature: 14.0°C (57°F)
Dewpoint: 4.0°C (39°F) [RH = 51%]
Pressure (altimeter): 30.50 inches Hg (1033.0 mb)
Winds: from the NNE (20 degrees) at 5 MPH (4 knots; 2.1 m/s)
Visibility: 6 or more miles (10+ km)
Ceiling: at least 12,000 feet AGL
Clouds: few clouds at 3200 feet AGL
Weather: no significant weather observed at this time

METAR text: EBFS 211255Z 02004KT 9999 FEW030 14/05 Q1033 BLU BLU
Conditions at: EBFS (FLORENNES (BEL-A, BE) observed 1255 UTC 21 March 2019
Temperature: 14.0°C (57°F)
Dewpoint: 5.0°C (41°F) [RH = 55%]
Pressure (altimeter): 30.50 inches Hg (1033.0 mb)
Winds: from the NNE (20 degrees) at 5 MPH (4 knots; 2.1 m/s)
Visibility: 6 or more miles (10+ km)
Ceiling: at least 12,000 feet AGL
Clouds: few clouds at 3000 feet AGL
Weather: no significant weather observed at this time

METAR text: EBFS 211225Z VRB02KT 9999 FEW030 14/04 Q1034 BLU BLU
Conditions at: EBFS (FLORENNES (BEL-A, BE) observed 1225 UTC 21 March 2019
Temperature: 14.0°C (57°F)
Dewpoint: 4.0°C (39°F) [RH = 51%]
Pressure (altimeter): 30.53 inches Hg (1034.0 mb)
Winds: variable direction winds at 2 MPH (2 knots; 1.0 m/s)
Visibility: 6 or more miles (10+ km)
Ceiling: at least 12,000 feet AGL
Clouds: few clouds at 3000 feet AGL
Weather: no significant weather observed at this time

METAR text: EBFS 211155Z VRB02KT 9999 FEW028 13/02 Q1034 BLU BLU
Conditions at: EBFS (FLORENNES (BEL-A, BE) observed 1155 UTC 21 March 2019
Temperature: 13.0°C (55°F)
Dewpoint: 2.0°C (36°F) [RH = 47%]
Pressure (altimeter): 30.53 inches Hg (1034.0 mb)
Winds: variable direction winds at 2 MPH (2 knots; 1.0 m/s)
Visibility: 6 or more miles (10+ km)
Ceiling: at least 12,000 feet AGL
Clouds: few clouds at 2800 feet AGL
Weather: no significant weather observed at this time

METAR text: EBFS 211125Z VRB02KT 9999 FEW025 13/02 Q1034 BLU BLU
Conditions at: EBFS (FLORENNES (BEL-A, BE) observed 1125 UTC 21 March 2019
Temperature: 13.0°C (55°F)
Dewpoint: 2.0°C (36°F) [RH = 47%]
Pressure (altimeter): 30.53 inches Hg (1034.0 mb)
Winds: variable direction winds at 2 MPH (2 knots; 1.0 m/s)
Visibility: 6 or more miles (10+ km)
Ceiling: at least 12,000 feet AGL
Clouds: few clouds at 2500 feet AGL
Weather: no significant weather observed at this time

METAR text: EBFS 211055Z VRB02KT 9999 FEW025 13/02 Q1034 BLU BLU
Conditions at: EBFS (FLORENNES (BEL-A, BE) observed 1055 UTC 21 March 2019
Temperature: 13.0°C (55°F)
Dewpoint: 2.0°C (36°F) [RH = 47%]
Pressure (altimeter): 30.53 inches Hg (1034.0 mb)
Winds: variable direction winds at 2 MPH (2 knots; 1.0 m/s)
Visibility: 6 or more miles (10+ km)
Ceiling: at least 12,000 feet AGL
Clouds: few clouds at 2500 feet AGL
Weather: no significant weather observed at this time

METAR text: EBFS 211025Z VRB01KT 9999 SCT220 12/01 Q1034 BLU BLU
Conditions at: EBFS (FLORENNES (BEL-A, BE) observed 1025 UTC 21 March 2019
Temperature: 12.0°C (54°F)
Dewpoint: 1.0°C (34°F) [RH = 47%]
Pressure (altimeter): 30.53 inches Hg (1034.0 mb)
Winds: variable direction winds at 1 MPH (1 knots; 0.5 m/s)
Visibility: 6 or more miles (10+ km)
Ceiling: at least 12,000 feet AGL
Clouds: scattered clouds at 22000 feet AGL
Weather: no significant weather observed at this time

METAR text: EBFS 210955Z VRB01KT 9999 SCT220 12/01 Q1034 BLU BLU
Conditions at: EBFS (FLORENNES (BEL-A, BE) observed 0955 UTC 21 March 2019
Temperature: 12.0°C (54°F)
Dewpoint: 1.0°C (34°F) [RH = 47%]
Pressure (altimeter): 30.53 inches Hg (1034.0 mb)
Winds: variable direction winds at 1 MPH (1 knots; 0.5 m/s)
Visibility: 6 or more miles (10+ km)
Ceiling: at least 12,000 feet AGL
Clouds: scattered clouds at 22000 feet AGL
Weather: no significant weather observed at this time

METAR text: EBFS 210925Z 16003KT 9999 SCT220 11/03 Q1034 BLU BLU
Conditions at: EBFS (FLORENNES (BEL-A, BE) observed 0925 UTC 21 March 2019
Temperature: 11.0°C (52°F)
Dewpoint: 3.0°C (37°F) [RH = 58%]
Pressure (altimeter): 30.53 inches Hg (1034.0 mb)
Winds: from the SSE (160 degrees) at 3 MPH (3 knots; 1.5 m/s)
Visibility: 6 or more miles (10+ km)
Ceiling: at least 12,000 feet AGL
Clouds: scattered clouds at 22000 feet AGL
Weather: no significant weather observed at this time

METAR text: EBFS 210855Z 13003KT 9999 SCT220 10/05 Q1034 BLU BLU
Conditions at: EBFS (FLORENNES (BEL-A, BE) observed 0855 UTC 21 March 2019
Temperature: 10.0°C (50°F)
Dewpoint: 5.0°C (41°F) [RH = 71%]
Pressure (altimeter): 30.53 inches Hg (1034.0 mb)
Winds: from the SE (130 degrees) at 3 MPH (3 knots; 1.5 m/s)
Visibility: 6 or more miles (10+ km)
Ceiling: at least 12,000 feet AGL
Clouds: scattered clouds at 22000 feet AGL
Weather: no significant weather observed at this time

METAR text: EBFS 210825Z 13004KT 9999 SCT220 09/05 Q1034 BLU BLU
Conditions at: EBFS (FLORENNES (BEL-A, BE) observed 0825 UTC 21 March 2019
Temperature: 9.0°C (48°F)
Dewpoint: 5.0°C (41°F) [RH = 76%]
Pressure (altimeter): 30.53 inches Hg (1034.0 mb)
Winds: from the SE (130 degrees) at 5 MPH (4 knots; 2.1 m/s)
Visibility: 6 or more miles (10+ km)
Ceiling: at least 12,000 feet AGL
Clouds: scattered clouds at 22000 feet AGL
Weather: no significant weather observed at this time

METAR text: EBFS 210755Z VRB02KT 9999 SCT220 07/05 Q1034 BLU BLU
Conditions at: EBFS (FLORENNES (BEL-A, BE) observed 0755 UTC 21 March 2019
Temperature: 7.0°C (45°F)
Dewpoint: 5.0°C (41°F) [RH = 87%]
Pressure (altimeter): 30.53 inches Hg (1034.0 mb)
Winds: variable direction winds at 2 MPH (2 knots; 1.0 m/s)
Visibility: 6 or more miles (10+ km)
Ceiling: at least 12,000 feet AGL
Clouds: scattered clouds at 22000 feet AGL
Weather: no significant weather observed at this time

METAR text: EBFS 210725Z 12003KT 8000 SCT220 06/04 Q1034 BLU BLU
Conditions at: EBFS (FLORENNES (BEL-A, BE) observed 0725 UTC 21 March 2019
Temperature: 6.0°C (43°F)
Dewpoint: 4.0°C (39°F) [RH = 87%]
Pressure (altimeter): 30.53 inches Hg (1034.0 mb)
Winds: from the ESE (120 degrees) at 3 MPH (3 knots; 1.5 m/s)
Visibility: 5 miles ( 8 km)
Ceiling: at least 12,000 feet AGL
Clouds: scattered clouds at 22000 feet AGL
Weather: no significant weather observed at this time

METAR text: EBFS 210722Z VRB02KT 8000 SCT220 06/04 Q1034 BLU BLU
Conditions at: EBFS (FLORENNES (BEL-A, BE) observed 0722 UTC 21 March 2019
Temperature: 6.0°C (43°F)
Dewpoint: 4.0°C (39°F) [RH = 87%]
Pressure (altimeter): 30.53 inches Hg (1034.0 mb)
Winds: variable direction winds at 2 MPH (2 knots; 1.0 m/s)
Visibility: 5 miles ( 8 km)
Ceiling: at least 12,000 feet AGL
Clouds: scattered clouds at 22000 feet AGL
Weather: no significant weather observed at this time

METAR text: EBFS 210703Z VRB02KT 6000 SCT220 05/04 Q1034 WHT WHT BECMG BLU
Conditions at: EBFS (FLORENNES (BEL-A, BE) observed 0703 UTC 21 March 2019
Temperature: 5.0°C (41°F)
Dewpoint: 4.0°C (39°F) [RH = 93%]
Pressure (altimeter): 30.53 inches Hg (1034.0 mb)
Winds: variable direction winds at 2 MPH (2 knots; 1.0 m/s)
Visibility: 4 miles ( 6 km)
Ceiling: at least 12,000 feet AGL
Clouds: scattered clouds at 22000 feet AGL
Weather: no significant weather observed at this time

METAR text: EBFS 210655Z VRB02KT 6000 SCT220 05/04 Q1034 WHT WHT TEMPO GRN
Conditions at: EBFS (FLORENNES (BEL-A, BE) observed 0655 UTC 21 March 2019
Temperature: 5.0°C (41°F)
Dewpoint: 4.0°C (39°F) [RH = 93%]
Pressure (altimeter): 30.53 inches Hg (1034.0 mb)
Winds: variable direction winds at 2 MPH (2 knots; 1.0 m/s)
Visibility: 4 miles ( 6 km)
Ceiling: at least 12,000 feet AGL
Clouds: scattered clouds at 22000 feet AGL
Weather: no significant weather observed at this time

METAR text: EBFS 210625Z VRB01KT 6000 SCT220 03/02 Q1034 WHT WHT TEMPO GRN
Conditions at: EBFS (FLORENNES (BEL-A, BE) observed 0625 UTC 21 March 2019
Temperature: 3.0°C (37°F)
Dewpoint: 2.0°C (36°F) [RH = 93%]
Pressure (altimeter): 30.53 inches Hg (1034.0 mb)
Winds: variable direction winds at 1 MPH (1 knots; 0.5 m/s)
Visibility: 4 miles ( 6 km)
Ceiling: at least 12,000 feet AGL
Clouds: scattered clouds at 22000 feet AGL
Weather: no significant weather observed at this time

METAR text: EBFS 210603Z VRB02KT 6000 SCT220 03/02 Q1034 WHT WHT TEMPO GRN
Conditions at: EBFS (FLORENNES (BEL-A, BE) observed 0603 UTC 21 March 2019
Temperature: 3.0°C (37°F)
Dewpoint: 2.0°C (36°F) [RH = 93%]
Pressure (altimeter): 30.53 inches Hg (1034.0 mb)
Winds: variable direction winds at 2 MPH (2 knots; 1.0 m/s)
Visibility: 4 miles ( 6 km)
Ceiling: at least 12,000 feet AGL
Clouds: scattered clouds at 22000 feet AGL
Weather: no significant weather observed at this time

METAR text: EBFS 210555Z AUTO VRB02KT 9999 FEW110/// SCT120/// BKN220/// 03/02 Q1034 BLU
Conditions at: EBFS (FLORENNES (BEL-A, BE) observed 0555 UTC 21 March 2019
Temperature: 3.0°C (37°F)
Dewpoint: 2.0°C (36°F) [RH = 93%]
Pressure (altimeter): 30.53 inches Hg (1034.0 mb)
Winds: variable direction winds at 2 MPH (2 knots; 1.0 m/s)
Visibility: 6 or more miles (10+ km)
Ceiling: 22000 feet AGL
Clouds: few clouds at 11000 feet AGL
scattered clouds at 12000 feet AGL
broken clouds at 22000 feet AGL
Weather: no significant weather observed at this time

METAR text: EBFS 210525Z AUTO VRB02KT 9999 SCT100/// BKN120/// BKN140/// 03/02 Q1034 BLU
Conditions at: EBFS (FLORENNES (BEL-A, BE) observed 0525 UTC 21 March 2019
Temperature: 3.0°C (37°F)
Dewpoint: 2.0°C (36°F) [RH = 93%]
Pressure (altimeter): 30.53 inches Hg (1034.0 mb)
Winds: variable direction winds at 2 MPH (2 knots; 1.0 m/s)
Visibility: 6 or more miles (10+ km)
Ceiling: 12000 feet AGL
Clouds: scattered clouds at 10000 feet AGL
broken clouds at 12000 feet AGL
broken clouds at 14000 feet AGL
Weather: no significant weather observed at this time

METAR text: EBFS 210517Z AUTO VRB02KT 9999 FEW100/// BKN120/// BKN140/// 03/02 Q1034 BLU
Conditions at: EBFS (FLORENNES (BEL-A, BE) observed 0517 UTC 21 March 2019
Temperature: 3.0°C (37°F)
Dewpoint: 2.0°C (36°F) [RH = 93%]
Pressure (altimeter): 30.53 inches Hg (1034.0 mb)
Winds: variable direction winds at 2 MPH (2 knots; 1.0 m/s)
Visibility: 6 or more miles (10+ km)
Ceiling: 12000 feet AGL
Clouds: few clouds at 10000 feet AGL
broken clouds at 12000 feet AGL
broken clouds at 14000 feet AGL
Weather: no significant weather observed at this time

METAR text: EBFS 210505Z AUTO 06004KT 7000 SCT100/// BKN120/// BKN140/// 03/01 Q1034 WHT
Conditions at: EBFS (FLORENNES (BEL-A, BE) observed 0505 UTC 21 March 2019
Temperature: 3.0°C (37°F)
Dewpoint: 1.0°C (34°F) [RH = 87%]
Pressure (altimeter): 30.53 inches Hg (1034.0 mb)
Winds: from the ENE (60 degrees) at 5 MPH (4 knots; 2.1 m/s)
Visibility: 4 miles ( 7 km)
Ceiling: 12000 feet AGL
Clouds: scattered clouds at 10000 feet AGL
broken clouds at 12000 feet AGL
broken clouds at 14000 feet AGL
Weather: no significant weather observed at this time

METAR text: EBFS 210455Z AUTO 06004KT 8000 FEW100/// BKN120/// BKN140/// 03/02 Q1034 BLU
Conditions at: EBFS (FLORENNES (BEL-A, BE) observed 0455 UTC 21 March 2019
Temperature: 3.0°C (37°F)
Dewpoint: 2.0°C (36°F) [RH = 93%]
Pressure (altimeter): 30.53 inches Hg (1034.0 mb)
Winds: from the ENE (60 degrees) at 5 MPH (4 knots; 2.1 m/s)
Visibility: 5 miles ( 8 km)
Ceiling: 12000 feet AGL
Clouds: few clouds at 10000 feet AGL
broken clouds at 12000 feet AGL
broken clouds at 14000 feet AGL
Weather: no significant weather observed at this time

METAR text: EBFS 210425Z AUTO VRB02KT 9000 FEW110/// BKN220/// 04/02 Q1034 BLU
Conditions at: EBFS (FLORENNES (BEL-A, BE) observed 0425 UTC 21 March 2019
Temperature: 4.0°C (39°F)
Dewpoint: 2.0°C (36°F) [RH = 87%]
Pressure (altimeter): 30.53 inches Hg (1034.0 mb)
Winds: variable direction winds at 2 MPH (2 knots; 1.0 m/s)
Visibility: 6 miles ( 9 km)
Ceiling: 22000 feet AGL
Clouds: few clouds at 11000 feet AGL
broken clouds at 22000 feet AGL
Weather: no significant weather observed at this time

METAR text: EBFS 210355Z AUTO VRB01KT 9999 FEW100/// SCT140/// BKN220/// 04/03 Q1034 BLU
Conditions at: EBFS (FLORENNES (BEL-A, BE) observed 0355 UTC 21 March 2019
Temperature: 4.0°C (39°F)
Dewpoint: 3.0°C (37°F) [RH = 93%]
Pressure (altimeter): 30.53 inches Hg (1034.0 mb)
Winds: variable direction winds at 1 MPH (1 knots; 0.5 m/s)
Visibility: 6 or more miles (10+ km)
Ceiling: 22000 feet AGL
Clouds: few clouds at 10000 feet AGL
scattered clouds at 14000 feet AGL
broken clouds at 22000 feet AGL
Weather: no significant weather observed at this time

METAR text: EBFS 210325Z AUTO VRB01KT 9000 FEW110/// SCT130/// BKN220/// 03/01 Q1034 BLU
Conditions at: EBFS (FLORENNES (BEL-A, BE) observed 0325 UTC 21 March 2019
Temperature: 3.0°C (37°F)
Dewpoint: 1.0°C (34°F) [RH = 87%]
Pressure (altimeter): 30.53 inches Hg (1034.0 mb)
Winds: variable direction winds at 1 MPH (1 knots; 0.5 m/s)
Visibility: 6 miles ( 9 km)
Ceiling: 22000 feet AGL
Clouds: few clouds at 11000 feet AGL
scattered clouds at 13000 feet AGL
broken clouds at 22000 feet AGL
Weather: no significant weather observed at this time

METAR text: EBFS 210255Z AUTO VRB01KT 9999 SCT110/// BKN130/// BKN220/// 05/03 Q1034 BLU
Conditions at: EBFS (FLORENNES (BEL-A, BE) observed 0255 UTC 21 March 2019
Temperature: 5.0°C (41°F)
Dewpoint: 3.0°C (37°F) [RH = 87%]
Pressure (altimeter): 30.53 inches Hg (1034.0 mb)
Winds: variable direction winds at 1 MPH (1 knots; 0.5 m/s)
Visibility: 6 or more miles (10+ km)
Ceiling: 13000 feet AGL
Clouds: scattered clouds at 11000 feet AGL
broken clouds at 13000 feet AGL
broken clouds at 22000 feet AGL
Weather: no significant weather observed at this time

METAR text: EBFS 210225Z AUTO VRB01KT 9999 FEW100/// SCT120/// BKN130/// 05/03 Q1034 BLU
Conditions at: EBFS (FLORENNES (BEL-A, BE) observed 0225 UTC 21 March 2019
Temperature: 5.0°C (41°F)
Dewpoint: 3.0°C (37°F) [RH = 87%]
Pressure (altimeter): 30.53 inches Hg (1034.0 mb)
Winds: variable direction winds at 1 MPH (1 knots; 0.5 m/s)
Visibility: 6 or more miles (10+ km)
Ceiling: 13000 feet AGL
Clouds: few clouds at 10000 feet AGL
scattered clouds at 12000 feet AGL
broken clouds at 13000 feet AGL
Weather: no significant weather observed at this time

METAR text: EBFS 210155Z AUTO VRB01KT 9999 SCT110/// BKN220/// 05/03 Q1034 BLU
Conditions at: EBFS (FLORENNES (BEL-A, BE) observed 0155 UTC 21 March 2019
Temperature: 5.0°C (41°F)
Dewpoint: 3.0°C (37°F) [RH = 87%]
Pressure (altimeter): 30.53 inches Hg (1034.0 mb)
Winds: variable direction winds at 1 MPH (1 knots; 0.5 m/s)
Visibility: 6 or more miles (10+ km)
Ceiling: 22000 feet AGL
Clouds: scattered clouds at 11000 feet AGL
broken clouds at 22000 feet AGL
Weather: no significant weather observed at this time

METAR text: EBFS 210125Z AUTO VRB02KT 9999 BKN210/// 06/03 Q1034 BLU
Conditions at: EBFS (FLORENNES (BEL-A, BE) observed 0125 UTC 21 March 2019
Temperature: 6.0°C (43°F)
Dewpoint: 3.0°C (37°F) [RH = 81%]
Pressure (altimeter): 30.53 inches Hg (1034.0 mb)
Winds: variable direction winds at 2 MPH (2 knots; 1.0 m/s)
Visibility: 6 or more miles (10+ km)
Ceiling: 21000 feet AGL
Clouds: broken clouds at 21000 feet AGL
Weather: no significant weather observed at this time

METAR text: EBFS 210055Z AUTO VRB02KT 9999 OVC220/// 06/03 Q1034 BLU
Conditions at: EBFS (FLORENNES (BEL-A, BE) observed 0055 UTC 21 March 2019
Temperature: 6.0°C (43°F)
Dewpoint: 3.0°C (37°F) [RH = 81%]
Pressure (altimeter): 30.53 inches Hg (1034.0 mb)
Winds: variable direction winds at 2 MPH (2 knots; 1.0 m/s)
Visibility: 6 or more miles (10+ km)
Ceiling: 22000 feet AGL
Clouds: overcast cloud deck at 22000 feet AGL
Weather: no significant weather observed at this time

Forecast for: EBFS (FLORENNES (BEL-A, BE)
Text: TAF EBFS 221141Z 2213/2222 14005KT 9999 SCT300
Forecast period: 1300 to 1400 UTC 22 March 2019
Forecast type: FROM: standard forecast or significant change
Winds: from the SE (140 degrees) at 6 MPH (5 knots; 2.6 m/s)
Visibility: 6 or more miles 10+ km)
Ceiling: at least 12,000 feet AGL
Clouds: scattered clouds at 30000 feet AGL
Weather: no significant weather forecast for this period
Text: BECMG 2214/2216 20008KT
Forecast period: 1400 to 2200 UTC 22 March 2019
Forecast type: BECOMING: Conditions expected to become as follows by 1600 UTC 22 March 2019
Winds: from the SSW (200 degrees) at 9 MPH (8 knots; 4.1 m/s)
Visibility: 6 or more miles 10+ km)
Ceiling: at least 12,000 feet AGL
Clouds: scattered clouds at 30000 feet AGL
Weather: no significant weather forecast for this period